createdAt,value
2023-11-11T00:01:19.207Z,26.80
2023-11-11T00:03:49.128Z,27.80
2023-11-11T00:06:17.370Z,28.90
2023-11-11T00:08:45.309Z,28.40
2023-11-11T00:11:13.479Z,27.80
2023-11-11T00:13:41.389Z,28.60
2023-11-11T00:16:09.465Z,28.10
2023-11-11T00:18:38.244Z,26.70
2023-11-11T00:21:06.409Z,29.90
2023-11-11T00:23:38.857Z,29.30
2023-11-11T00:26:07.392Z,30.30
2023-11-11T00:28:41.487Z,30.90
2023-11-11T00:31:12.158Z,30.50
2023-11-11T00:33:41.352Z,28.10
2023-11-11T00:36:10.766Z,29.10
2023-11-11T00:38:39.242Z,28.50
2023-11-11T00:41:07.032Z,30.20
2023-11-11T00:43:34.875Z,29.20
2023-11-11T00:46:03.252Z,30.80
2023-11-11T00:48:32.465Z,29.60
2023-11-11T00:53:28.878Z,27.50
2023-11-11T00:55:58.533Z,30.50
2023-11-11T01:00:55.450Z,28.30
2023-11-11T01:03:24.195Z,27.10
2023-11-11T01:05:52.339Z,24.90
2023-11-11T01:08:20.967Z,26.50
2023-11-11T01:10:51.302Z,25.60
2023-11-11T01:13:20.481Z,25.00
2023-11-11T01:18:18.872Z,29.30
2023-11-11T01:20:46.908Z,28.30
2023-11-11T01:23:15.584Z,36.70
2023-11-11T01:25:43.829Z,36.30
2023-11-11T01:28:12.427Z,34.50
2023-11-11T01:30:40.884Z,31.50
2023-11-11T01:33:08.916Z,30.50
2023-11-11T01:35:36.994Z,32.60
2023-11-11T01:38:06.092Z,31.40
2023-11-11T01:40:34.008Z,30.40
2023-11-11T01:43:01.845Z,31.70
2023-11-11T01:45:30.785Z,33.00
2023-11-11T01:47:59.383Z,30.90
2023-11-11T01:50:28.009Z,33.50
2023-11-11T01:52:56.413Z,31.20
2023-11-11T01:55:25.796Z,34.90
2023-11-11T01:57:53.655Z,37.40
2023-11-11T02:00:22.905Z,38.00
2023-11-11T02:02:50.957Z,36.70
2023-11-11T02:05:21.190Z,32.70
2023-11-11T02:07:49.680Z,31.90
2023-11-11T02:10:19.016Z,34.90
2023-11-11T02:12:47.078Z,36.80
2023-11-11T02:15:16.813Z,31.50
2023-11-11T02:17:45.189Z,32.40
2023-11-11T02:20:15.899Z,27.70
2023-11-11T02:22:44.461Z,34.10
2023-11-11T02:25:12.462Z,33.50
2023-11-11T02:27:40.380Z,34.60
2023-11-11T02:30:13.283Z,34.70
2023-11-11T02:32:42.398Z,35.20
2023-11-11T02:35:10.639Z,34.80
2023-11-11T02:37:38.799Z,35.70
2023-11-11T02:40:10.269Z,35.10
2023-11-11T02:42:39.002Z,35.60
2023-11-11T02:45:07.829Z,36.30
2023-11-11T02:47:36.510Z,41.00
2023-11-11T02:50:05.251Z,35.50
2023-11-11T02:52:33.252Z,32.80
2023-11-11T02:55:01.036Z,33.60
2023-11-11T02:57:30.037Z,34.40
2023-11-11T02:59:58.781Z,36.90
2023-11-11T03:02:26.861Z,40.20
2023-11-11T03:04:55.462Z,38.20
2023-11-11T03:07:23.505Z,35.20
2023-11-11T03:09:51.372Z,34.80
2023-11-11T03:12:19.880Z,34.60
2023-11-11T03:14:48.032Z,34.60
2023-11-11T03:17:17.511Z,35.30
2023-11-11T03:19:46.102Z,32.30
2023-11-11T03:22:13.949Z,31.70
2023-11-11T03:24:42.373Z,35.90
2023-11-11T03:27:11.821Z,31.70
2023-11-11T03:29:39.732Z,32.70
2023-11-11T03:32:08.514Z,35.10
2023-11-11T03:34:36.855Z,32.20
2023-11-11T03:37:05.063Z,32.30
2023-11-11T03:39:33.060Z,28.70
2023-11-11T03:42:01.487Z,31.50
2023-11-11T03:44:29.691Z,30.20
2023-11-11T03:46:57.518Z,30.00
2023-11-11T03:49:26.326Z,33.90
2023-11-11T03:51:54.311Z,36.20
2023-11-11T03:54:23.458Z,34.30
2023-11-11T03:56:52.066Z,35.10
2023-11-11T03:59:20.249Z,40.20
2023-11-11T04:01:48.776Z,37.40
2023-11-11T04:04:17.266Z,37.40
2023-11-11T04:06:45.350Z,34.20
2023-11-11T04:09:14.388Z,31.60
2023-11-11T04:14:11.460Z,33.10
2023-11-11T04:16:39.535Z,29.60
2023-11-11T04:19:09.429Z,29.20
2023-11-11T04:21:37.644Z,31.00
2023-11-11T04:24:06.560Z,32.00
2023-11-11T04:26:35.084Z,28.10
2023-11-11T04:29:02.927Z,28.80
2023-11-11T04:31:30.992Z,31.70
2023-11-11T04:33:59.994Z,30.30
2023-11-11T04:36:28.375Z,29.00
2023-11-11T04:38:56.445Z,30.30
2023-11-11T04:41:27.701Z,31.80
2023-11-11T04:43:58.295Z,31.90
2023-11-11T04:46:26.810Z,32.50
2023-11-11T04:48:54.999Z,30.60
2023-11-11T04:51:23.175Z,29.30
2023-11-11T04:53:51.416Z,29.70
2023-11-11T04:56:21.103Z,30.70
2023-11-11T04:58:49.433Z,29.20
2023-11-11T05:01:18.315Z,32.10
2023-11-11T05:03:47.273Z,30.60
2023-11-11T05:06:18.439Z,29.40
2023-11-11T05:08:47.530Z,32.80
2023-11-11T05:11:15.473Z,30.80
2023-11-11T05:13:45.606Z,35.40
2023-11-11T05:16:36.804Z,32.20
2023-11-11T05:19:05.517Z,32.30
2023-11-11T05:21:34.381Z,32.20
2023-11-11T05:24:02.749Z,35.60
2023-11-11T05:26:32.388Z,34.00
2023-11-11T05:29:02.399Z,36.10
2023-11-11T05:31:32.244Z,34.50
2023-11-11T05:34:00.606Z,32.90
2023-11-11T05:36:29.138Z,36.40
2023-11-11T05:38:56.925Z,38.90
2023-11-11T05:41:24.912Z,37.30
2023-11-11T05:43:53.073Z,41.20
2023-11-11T05:46:21.937Z,39.50
2023-11-11T05:48:50.434Z,37.00
2023-11-11T05:51:18.979Z,37.90
2023-11-11T05:53:46.816Z,39.60
2023-11-11T05:56:16.993Z,37.40
2023-11-11T05:58:45.345Z,37.00
2023-11-11T06:01:13.298Z,34.10
2023-11-11T06:03:41.856Z,35.20
2023-11-11T06:06:10.376Z,34.60
2023-11-11T06:08:38.200Z,37.00
2023-11-11T06:11:07.194Z,34.00
2023-11-11T06:13:35.380Z,35.10
2023-11-11T06:16:03.605Z,34.30
2023-11-11T06:18:31.577Z,32.70
2023-11-11T06:21:01.055Z,35.80
2023-11-11T06:26:00.429Z,33.10
2023-11-11T06:28:28.310Z,35.80
2023-11-11T06:30:56.445Z,32.50
2023-11-11T06:33:25.283Z,34.20
2023-11-11T06:35:53.150Z,33.30
2023-11-11T06:38:21.045Z,33.30
2023-11-11T06:40:49.452Z,33.00
2023-11-11T06:43:18.332Z,36.40
2023-11-11T06:45:46.777Z,31.00
2023-11-11T06:48:17.505Z,31.40
2023-11-11T06:50:45.656Z,32.00
2023-11-11T06:53:13.530Z,32.10
2023-11-11T06:55:41.981Z,33.60
2023-11-11T06:58:09.797Z,30.90
2023-11-11T07:00:37.586Z,30.20
2023-11-11T07:03:06.172Z,30.40
2023-11-11T07:05:34.121Z,29.20
2023-11-11T07:08:02.449Z,30.40
2023-11-11T07:10:34.889Z,31.90
2023-11-11T07:13:02.853Z,30.00
2023-11-11T07:15:30.942Z,33.10
2023-11-11T07:17:59.067Z,31.60
2023-11-11T07:20:31.608Z,28.80
2023-11-11T07:23:00.899Z,31.70
2023-11-11T07:25:29.495Z,32.50
2023-11-11T07:27:57.335Z,33.30
2023-11-11T07:30:25.859Z,35.60
2023-11-11T07:33:00.043Z,35.40
2023-11-11T07:35:30.990Z,32.20
2023-11-11T07:37:58.944Z,32.60
2023-11-11T07:40:27.165Z,33.10
2023-11-11T07:42:57.965Z,28.60
2023-11-11T07:45:28.155Z,30.20
2023-11-11T07:47:56.398Z,28.10
2023-11-11T07:50:24.851Z,30.40
2023-11-11T07:52:56.373Z,32.20
2023-11-11T07:55:24.859Z,31.90
2023-11-11T08:00:25.846Z,30.70
2023-11-11T08:02:54.498Z,31.30
2023-11-11T08:05:29.404Z,33.30
2023-11-11T08:08:11.487Z,32.50
2023-11-11T08:10:50.733Z,30.20
2023-11-11T08:13:19.675Z,29.40
2023-11-11T08:15:47.983Z,28.50
2023-11-11T08:18:16.193Z,30.80
2023-11-11T08:20:45.307Z,31.40
2023-11-11T08:23:15.525Z,34.80
2023-11-11T08:25:43.607Z,38.40
2023-11-11T08:28:12.056Z,37.30
2023-11-11T08:30:42.331Z,32.70
2023-11-11T08:33:11.835Z,31.40
2023-11-11T08:35:39.886Z,28.90
2023-11-11T08:38:07.780Z,29.00
2023-11-11T08:40:36.007Z,28.60
2023-11-11T08:43:05.718Z,28.80
2023-11-11T08:45:33.635Z,28.00
2023-11-11T08:48:02.565Z,80.80
2023-11-11T08:50:30.966Z,47.10
2023-11-11T08:53:01.027Z,50.90
2023-11-11T08:55:29.044Z,36.60
2023-11-11T08:57:57.374Z,32.30
2023-11-11T09:00:27.054Z,31.10
2023-11-11T09:02:56.283Z,28.10
2023-11-11T09:07:52.540Z,28.20
2023-11-11T09:10:21.673Z,27.30
2023-11-11T09:15:18.693Z,28.40
2023-11-11T09:17:46.927Z,26.50
2023-11-11T09:20:15.730Z,26.40
2023-11-11T09:22:43.555Z,26.30
2023-11-11T09:25:11.734Z,27.80
2023-11-11T09:27:40.973Z,27.20
2023-11-11T09:30:12.793Z,27.10
2023-11-11T09:32:40.997Z,24.60
2023-11-11T09:35:15.190Z,26.30
2023-11-11T09:37:43.190Z,29.70
2023-11-11T09:40:12.660Z,26.70
2023-11-11T09:42:42.418Z,30.90
2023-11-11T09:47:46.102Z,30.30
2023-11-11T09:50:21.140Z,33.20
2023-11-11T09:52:52.780Z,30.80
2023-11-11T09:57:50.027Z,29.40
2023-11-11T10:00:18.490Z,30.00
2023-11-11T10:02:46.831Z,29.50
2023-11-11T10:05:16.238Z,26.90
2023-11-11T10:07:44.709Z,27.50
2023-11-11T10:10:13.591Z,26.90
2023-11-11T10:12:41.855Z,36.80
2023-11-11T10:15:12.153Z,25.60
2023-11-11T10:17:41.838Z,26.10
2023-11-11T10:20:17.647Z,26.40
2023-11-11T10:22:47.721Z,26.60
2023-11-11T10:25:21.157Z,25.60
2023-11-11T10:27:56.450Z,25.00
2023-11-11T10:30:26.536Z,25.30
2023-11-11T10:32:56.064Z,22.90
2023-11-11T10:35:26.250Z,24.30
2023-11-11T10:37:55.340Z,25.50
2023-11-11T10:40:24.256Z,22.80
2023-11-11T10:42:52.281Z,23.30
2023-11-11T10:45:20.469Z,24.10
2023-11-11T10:47:49.484Z,23.80
2023-11-11T10:50:18.527Z,21.70
2023-11-11T10:52:48.161Z,20.60
2023-11-11T10:55:17.115Z,20.80
2023-11-11T10:57:45.872Z,21.50
2023-11-11T11:00:25.864Z,21.00
2023-11-11T11:02:55.960Z,22.10
2023-11-11T11:05:32.044Z,19.90
2023-11-11T11:08:08.411Z,23.50
2023-11-11T11:10:49.874Z,21.00
2023-11-11T11:13:19.931Z,20.20
2023-11-11T11:15:47.978Z,20.80
2023-11-11T11:18:23.927Z,23.70
2023-11-11T11:20:55.611Z,19.10
2023-11-11T11:23:24.419Z,20.40
2023-11-11T11:25:52.614Z,19.50
2023-11-11T11:28:23.978Z,19.50
2023-11-11T11:30:59.612Z,20.80
2023-11-11T11:33:29.915Z,20.10
2023-11-11T11:36:05.809Z,18.30
2023-11-11T11:38:34.963Z,19.30
2023-11-11T11:41:14.258Z,19.30
2023-11-11T11:43:43.439Z,20.40
2023-11-11T11:46:12.107Z,21.00
2023-11-11T11:48:42.088Z,19.60
2023-11-11T11:51:11.171Z,18.40
2023-11-11T11:53:44.040Z,19.20
2023-11-11T11:56:29.336Z,20.60
2023-11-11T11:58:59.783Z,17.80
2023-11-11T12:01:32.845Z,23.30
2023-11-11T12:04:01.936Z,18.50
2023-11-11T12:06:30.505Z,36.90
2023-11-11T12:09:01.188Z,183.30
2023-11-11T12:11:32.270Z,94.80
2023-11-11T12:14:14.684Z,49.00
2023-11-11T12:16:44.685Z,35.10
2023-11-11T12:19:15.122Z,22.80
2023-11-11T12:21:46.309Z,20.30
2023-11-11T12:24:16.286Z,17.40
2023-11-11T12:26:48.744Z,15.00
2023-11-11T12:29:17.277Z,15.40
2023-11-11T12:31:53.312Z,16.60
2023-11-11T12:34:24.118Z,14.50
2023-11-11T12:36:53.894Z,14.40
2023-11-11T12:39:26.585Z,17.30
2023-11-11T12:41:57.928Z,13.20
2023-11-11T12:44:27.583Z,15.80
2023-11-11T12:47:00.800Z,15.80
2023-11-11T12:49:30.137Z,14.90
2023-11-11T12:52:00.656Z,16.10
2023-11-11T12:54:33.280Z,14.50
2023-11-11T12:57:03.363Z,14.60
2023-11-11T12:59:31.747Z,15.90
2023-11-11T13:02:07.192Z,16.10
2023-11-11T13:04:36.104Z,16.90
2023-11-11T13:07:22.603Z,17.30
2023-11-11T13:09:51.416Z,15.70
2023-11-11T13:12:21.552Z,18.10
2023-11-11T13:14:51.940Z,18.10
2023-11-11T13:17:28.048Z,14.80
2023-11-11T13:19:59.418Z,18.50
2023-11-11T13:22:30.065Z,16.40
2023-11-11T13:24:58.134Z,17.50
2023-11-11T13:27:26.201Z,15.90
2023-11-11T13:29:54.340Z,19.20
2023-11-11T13:32:23.190Z,16.40
2023-11-11T13:34:51.174Z,20.50
2023-11-11T13:37:27.123Z,19.80
2023-11-11T13:40:01.823Z,20.80
2023-11-11T13:42:31.558Z,23.10
2023-11-11T13:45:00.128Z,27.50
2023-11-11T13:47:28.070Z,25.90
2023-11-11T13:49:56.267Z,26.40
2023-11-11T13:52:24.183Z,25.80
2023-11-11T13:54:52.393Z,25.60
2023-11-11T13:57:21.991Z,24.60
2023-11-11T13:59:50.415Z,26.80
2023-11-11T14:02:18.881Z,25.40
2023-11-11T14:04:47.658Z,22.50
2023-11-11T14:07:15.772Z,21.90
2023-11-11T14:09:43.715Z,22.70
2023-11-11T14:12:14.283Z,23.40
2023-11-11T14:14:43.559Z,23.20
2023-11-11T14:17:11.791Z,25.90
2023-11-11T14:19:40.601Z,20.50
2023-11-11T14:22:08.645Z,22.30
2023-11-11T14:24:38.968Z,17.00
2023-11-11T14:27:08.564Z,17.80
2023-11-11T14:29:36.678Z,18.90
2023-11-11T14:32:06.510Z,19.20
2023-11-11T14:34:35.522Z,17.30
2023-11-11T14:37:03.722Z,16.70
2023-11-11T14:39:31.545Z,18.10
2023-11-11T14:42:00.296Z,21.10
2023-11-11T14:44:28.157Z,25.90
2023-11-11T14:46:56.502Z,29.20
2023-11-11T14:49:25.885Z,24.90
2023-11-11T14:51:56.420Z,28.20
2023-11-11T14:54:25.444Z,26.20
2023-11-11T14:56:53.618Z,26.40
2023-11-11T14:59:21.461Z,28.00
2023-11-11T15:01:51.912Z,27.40
2023-11-11T15:04:21.576Z,29.50
2023-11-11T15:06:49.543Z,23.30
2023-11-11T15:09:22.695Z,26.60
2023-11-11T15:11:50.953Z,27.00
2023-11-11T15:14:18.881Z,29.00
2023-11-11T15:16:47.298Z,23.10
2023-11-11T15:19:15.660Z,23.10
2023-11-11T15:21:46.765Z,46.90
2023-11-11T15:24:17.166Z,55.10
2023-11-11T15:26:46.349Z,50.80
2023-11-11T15:29:14.209Z,49.30
2023-11-11T15:31:42.660Z,59.20
2023-11-11T15:34:10.886Z,46.10
2023-11-11T15:36:39.446Z,43.80
2023-11-11T15:39:16.306Z,39.70
2023-11-11T15:41:44.392Z,38.50
2023-11-11T15:44:12.510Z,34.30
2023-11-11T15:46:40.485Z,40.90
2023-11-11T15:49:08.995Z,40.50
2023-11-11T15:51:37.482Z,39.40
2023-11-11T15:54:06.184Z,53.00
2023-11-11T15:56:34.158Z,47.20
2023-11-11T15:59:02.219Z,45.90
2023-11-11T16:01:30.724Z,52.20
2023-11-11T16:03:58.733Z,62.80
2023-11-11T16:06:27.849Z,68.80
2023-11-11T16:08:55.619Z,63.10
2023-11-11T16:11:23.747Z,67.20
2023-11-11T16:13:51.841Z,63.50
2023-11-11T16:16:20.896Z,67.50
2023-11-11T16:18:50.317Z,71.30
2023-11-11T16:21:20.494Z,62.50
2023-11-11T16:23:49.768Z,64.60
2023-11-11T16:26:20.131Z,62.00
2023-11-11T16:28:51.746Z,60.50
2023-11-11T16:31:21.808Z,57.00
2023-11-11T16:33:49.876Z,57.20
2023-11-11T16:36:18.011Z,60.60
2023-11-11T16:38:46.168Z,54.20
2023-11-11T16:41:15.556Z,55.90
2023-11-11T16:43:43.831Z,61.10
2023-11-11T16:46:12.001Z,56.80
2023-11-11T16:48:40.920Z,57.20
2023-11-11T16:51:09.041Z,61.10
2023-11-11T16:53:40.710Z,56.70
2023-11-11T16:56:08.935Z,57.60
2023-11-11T16:58:37.814Z,56.90
2023-11-11T17:01:09.251Z,53.00
2023-11-11T17:03:38.939Z,51.90
2023-11-11T17:06:10.976Z,48.90
2023-11-11T17:08:39.653Z,48.20
2023-11-11T17:11:10.238Z,53.50
2023-11-11T17:13:43.103Z,52.00
2023-11-11T17:16:11.317Z,50.40
2023-11-11T17:18:39.493Z,47.80
2023-11-11T17:21:08.604Z,49.80
2023-11-11T17:23:36.526Z,45.40
2023-11-11T17:26:04.693Z,42.60
2023-11-11T17:28:32.758Z,41.40
2023-11-11T17:31:01.039Z,40.50
2023-11-11T17:33:37.768Z,39.60
2023-11-11T17:36:09.470Z,44.80
2023-11-11T17:38:42.672Z,54.00
2023-11-11T17:41:13.648Z,48.40
2023-11-11T17:43:44.831Z,53.70
2023-11-11T17:46:24.169Z,51.80
2023-11-11T17:48:52.174Z,48.80
2023-11-11T17:51:20.667Z,53.40
2023-11-11T17:53:48.823Z,55.80
2023-11-11T17:56:30.538Z,51.50
2023-11-11T17:58:58.732Z,61.40
2023-11-11T18:01:35.999Z,55.50
2023-11-11T18:04:05.144Z,57.30
2023-11-11T18:06:33.072Z,54.30
2023-11-11T18:09:01.415Z,54.80
2023-11-11T18:11:29.354Z,53.40
2023-11-11T18:13:57.483Z,47.30
2023-11-11T18:16:26.905Z,44.90
2023-11-11T18:21:25.170Z,44.10
2023-11-11T18:23:54.764Z,48.20
2023-11-11T18:26:22.935Z,36.70
2023-11-11T18:28:53.991Z,38.50
2023-11-11T18:31:21.893Z,34.30
2023-11-11T18:33:50.214Z,31.30
2023-11-11T18:36:21.617Z,34.00
2023-11-11T18:38:49.487Z,33.10
2023-11-11T18:41:18.231Z,31.60
2023-11-11T18:43:46.258Z,36.50
2023-11-11T18:46:16.519Z,35.90
2023-11-11T18:48:44.707Z,32.40
2023-11-11T18:51:12.833Z,32.40
2023-11-11T18:53:41.017Z,34.60
2023-11-11T18:56:09.170Z,36.70
2023-11-11T18:58:37.680Z,31.20
2023-11-11T19:01:06.147Z,29.50
2023-11-11T19:03:34.638Z,29.10
2023-11-11T19:06:02.873Z,23.70
2023-11-11T19:08:32.507Z,22.60
2023-11-11T19:11:00.672Z,19.00
2023-11-11T19:13:28.647Z,19.00
2023-11-11T19:15:56.797Z,17.90
2023-11-11T19:18:25.028Z,18.90
2023-11-11T19:20:53.052Z,17.60
2023-11-11T19:23:22.200Z,16.90
2023-11-11T19:25:50.874Z,18.60
2023-11-11T19:28:18.994Z,17.00
2023-11-11T19:30:47.023Z,19.00
2023-11-11T19:33:15.387Z,19.90
2023-11-11T19:35:43.382Z,16.50
2023-11-11T19:38:11.309Z,20.30
2023-11-11T19:40:41.286Z,18.50
2023-11-11T19:43:09.495Z,19.30
2023-11-11T19:45:37.430Z,23.50
2023-11-11T19:48:06.310Z,19.70
2023-11-11T19:50:34.542Z,21.10
2023-11-11T19:53:02.706Z,20.20
2023-11-11T19:55:31.076Z,21.00
2023-11-11T19:57:59.175Z,20.10
2023-11-11T20:00:27.111Z,21.40
2023-11-11T20:02:55.157Z,22.40
2023-11-11T20:05:25.877Z,22.00
2023-11-11T20:07:54.341Z,23.60
2023-11-11T20:10:23.616Z,24.20
2023-11-11T20:15:23.304Z,23.30
2023-11-11T20:17:51.847Z,23.10
2023-11-11T20:20:20.404Z,23.70
2023-11-11T20:22:48.567Z,23.20
2023-11-11T20:25:19.098Z,21.90
2023-11-11T20:27:47.470Z,23.60
2023-11-11T20:30:15.396Z,24.70
2023-11-11T20:32:43.513Z,24.70
2023-11-11T20:35:13.208Z,26.10
2023-11-11T20:40:16.073Z,23.10
2023-11-11T20:42:45.527Z,22.20
2023-11-11T20:45:14.038Z,25.20
2023-11-11T20:47:42.203Z,22.10
2023-11-11T20:50:12.141Z,21.20
2023-11-11T20:52:40.134Z,18.40
2023-11-11T20:55:09.113Z,16.70
2023-11-11T20:57:37.903Z,18.00
2023-11-11T21:00:07.448Z,16.60
2023-11-11T21:02:36.467Z,16.50
2023-11-11T21:05:05.735Z,16.90
2023-11-11T21:07:35.239Z,16.90
2023-11-11T21:10:03.957Z,18.20
2023-11-11T21:12:32.047Z,15.40
2023-11-11T21:14:59.869Z,16.20
2023-11-11T21:17:29.176Z,14.70
2023-11-11T21:19:58.349Z,15.80
2023-11-11T21:22:26.687Z,17.30
2023-11-11T21:24:54.676Z,16.50
2023-11-11T21:27:23.264Z,16.40
2023-11-11T21:29:51.119Z,16.70
2023-11-11T21:32:19.296Z,16.30
2023-11-11T21:34:47.602Z,14.60
2023-11-11T21:37:15.445Z,14.80
2023-11-11T21:39:46.361Z,14.40
2023-11-11T21:42:14.745Z,14.90
2023-11-11T21:44:42.641Z,16.60
2023-11-11T21:47:11.124Z,15.50
2023-11-11T21:49:39.539Z,15.10
2023-11-11T21:52:07.486Z,17.30
2023-11-11T21:54:35.645Z,14.80
2023-11-11T21:57:04.285Z,14.90
2023-11-11T21:59:35.176Z,15.30
2023-11-11T22:02:03.815Z,15.70
2023-11-11T22:04:32.547Z,15.80
2023-11-11T22:07:00.348Z,14.20
2023-11-11T22:09:28.370Z,15.50
2023-11-11T22:11:57.405Z,15.00
2023-11-11T22:14:26.752Z,15.60
2023-11-11T22:19:23.218Z,14.40
2023-11-11T22:21:53.351Z,14.20
2023-11-11T22:24:21.355Z,13.00
2023-11-11T22:26:51.242Z,14.30
2023-11-11T22:29:19.983Z,14.00
2023-11-11T22:31:48.565Z,13.60
2023-11-11T22:34:17.954Z,13.10
2023-11-11T22:36:45.939Z,16.10
2023-11-11T22:39:14.592Z,14.60
2023-11-11T22:41:43.975Z,14.40
2023-11-11T22:44:12.101Z,14.00
2023-11-11T22:46:40.263Z,14.70
2023-11-11T22:49:09.073Z,15.00
2023-11-11T22:51:37.512Z,13.50
2023-11-11T22:54:06.288Z,11.90
2023-11-11T22:56:34.315Z,13.40
2023-11-11T22:59:02.306Z,14.20
2023-11-11T23:01:32.522Z,12.90
2023-11-11T23:04:00.773Z,13.90
2023-11-11T23:06:29.280Z,13.50
2023-11-11T23:08:59.445Z,12.90
2023-11-11T23:11:29.866Z,13.40
2023-11-11T23:13:57.989Z,13.10
2023-11-11T23:16:26.278Z,13.00
2023-11-11T23:18:54.794Z,12.80
2023-11-11T23:21:24.445Z,13.40
2023-11-11T23:23:52.931Z,12.70
2023-11-11T23:26:21.195Z,13.60
2023-11-11T23:28:49.875Z,12.90
2023-11-11T23:31:19.266Z,13.20
2023-11-11T23:33:47.357Z,14.20
2023-11-11T23:36:16.591Z,14.20
2023-11-11T23:38:44.492Z,12.20
2023-11-11T23:41:12.693Z,13.60
2023-11-11T23:43:40.904Z,15.30
2023-11-11T23:46:08.865Z,15.60
2023-11-11T23:48:37.762Z,14.90
2023-11-11T23:51:08.717Z,13.70
2023-11-11T23:53:37.543Z,15.10
2023-11-11T23:56:06.336Z,13.80
2023-11-11T23:58:34.405Z,13.80
